Weather at Rawlinna Airport

Public forecast

Using degrees Celsius for public forecast. Weather courtesy of forecast.io.

Closest aviation weather report (METAR) to Rawlinna Airport

Closest report is Forrest Airport, 143.9 nm (266.4 km) E. Retrieved 2022/06/28 13:00 UTC (13 minutes ago):

YFRT 281300Z AUTO 20008KT 9999 // NCD 11/08 Q1026 RF000/0000

Closest aviation forecast (TAF) to Rawlinna Airport

Closest forecast is Forrest Airport, 143.9 nm (266.4 km) E. Retrieved 2022/06/28 14:00 UTC (0 seconds ago):

TAF YFRT 281306Z 2814/2902 21008KT 9999 FEW010 FM282000 20008KT 9999 SCT010 BKN030 FM290100 19014KT 9999 -SHRA SCT030 BKN050